Time;durP1;ratioP1;P1;durP2;ratioP2;P2;SDS_P1;SDS_P2;PMS_P1;PMS_P2;Temp;Humidity;BMP_temperature;BMP_pressure;BME280_temperature;BME280_humidity;BME280_pressure;Samples;Min_cycle;Max_cycle;Signal;HPM_P1;HPM_P2
2022/04/24 00:00:11;;;;;;;33.42;22.30;;;;;;;13.35;74.15;99100.75;4469888;32;34138;-60
2022/04/24 00:02:39;;;;;;;34.25;21.65;;;;;;;12.86;76.35;99089.16;4455871;32;34166;-60
2022/04/24 00:05:08;;;;;;;36.75;22.48;;;;;;;12.71;77.53;99089.69;4474456;32;33781;-61
2022/04/24 00:07:36;;;;;;;34.70;21.52;;;;;;;12.52;78.62;99093.53;4470673;32;32386;-61
2022/04/24 00:10:04;;;;;;;37.42;23.38;;;;;;;12.68;78.06;99092.19;4470549;32;33964;-60
2022/04/24 00:12:32;;;;;;;33.35;22.25;;;;;;;12.85;77.28;99096.94;4474270;32;34876;-59
2022/04/24 00:14:59;;;;;;;36.33;22.35;;;;;;;12.70;77.72;99093.09;4471391;32;32383;-60
2022/04/24 00:17:27;;;;;;;34.70;22.58;;;;;;;12.80;77.22;99089.00;4470831;32;33590;-60
2022/04/24 00:19:54;;;;;;;36.55;21.52;;;;;;;12.94;76.59;99086.75;4470970;32;34775;-61
2022/04/24 00:22:22;;;;;;;33.67;21.33;;;;;;;12.92;76.63;99088.44;4469179;32;34021;-59
2022/04/24 00:24:50;;;;;;;36.83;22.10;;;;;;;12.82;76.67;99076.06;4468377;32;33829;-61
2022/04/24 00:27:17;;;;;;;33.88;21.58;;;;;;;13.01;75.97;99067.84;4468972;32;34528;-61
2022/04/24 00:29:45;;;;;;;33.05;22.48;;;;;;;12.90;76.69;99064.13;4471248;32;32460;-60
2022/04/24 00:32:13;;;;;;;33.47;20.92;;;;;;;12.74;76.97;99058.56;4468170;32;34150;-60
2022/04/24 00:34:41;;;;;;;31.08;20.88;;;;;;;12.82;76.56;99050.06;4466838;32;32351;-61
2022/04/24 00:37:09;;;;;;;33.85;20.45;;;;;;;12.83;75.97;99046.66;4469105;32;34559;-60
2022/04/24 00:39:37;;;;;;;36.53;21.37;;;;;;;12.84;75.92;99051.84;4469797;32;33823;-59
2022/04/24 00:42:08;;;;;;;33.75;21.00;;;;;;;12.49;77.19;99048.41;4469178;32;34214;-61
2022/04/24 00:44:35;;;;;;;35.22;21.08;;;;;;;12.85;75.71;99060.56;4454156;32;33195;-61
2022/04/24 00:47:13;;;;;;;30.37;19.23;;;;;;;13.11;74.13;99054.22;4468849;32;33155;-60
2022/04/24 00:49:42;;;;;;;29.85;19.55;;;;;;;13.17;74.14;99058.66;4468863;32;34578;-60
2022/04/24 00:52:10;;;;;;;32.22;19.70;;;;;;;13.35;73.48;99050.44;4472805;32;34141;-61
2022/04/24 00:54:38;;;;;;;29.25;19.75;;;;;;;12.97;74.49;99053.91;4470624;32;33768;-59
2022/04/24 00:57:08;;;;;;;30.98;19.25;;;;;;;12.89;75.21;99051.97;4472826;32;33819;-61
2022/04/24 00:59:39;;;;;;;30.95;20.55;;;;;;;12.91;74.97;99056.37;4456302;32;32730;-61
2022/04/24 01:02:08;;;;;;;32.78;19.55;;;;;;;12.72;75.77;99055.03;4466463;32;34103;-61
2022/04/24 01:04:37;;;;;;;32.80;21.20;;;;;;;12.69;76.13;99060.19;4472608;32;32308;-62
2022/04/24 01:07:06;;;;;;;32.70;20.92;;;;;;;12.73;75.91;99051.62;4470085;32;32343;-60
2022/04/24 01:09:35;;;;;;;32.55;20.92;;;;;;;12.57;76.76;99062.47;4472586;32;33907;-60
2022/04/24 01:12:04;;;;;;;31.70;19.73;;;;;;;12.57;76.53;99059.88;4471846;32;33954;-60
2022/04/24 01:14:33;;;;;;;31.02;19.83;;;;;;;12.70;76.02;99059.31;4468869;32;33348;-61
2022/04/24 01:17:02;;;;;;;31.70;20.25;;;;;;;12.82;75.23;99063.06;4471271;32;32313;-62
2022/04/24 01:19:30;;;;;;;28.62;18.87;;;;;;;12.44;76.65;99050.00;4467940;32;32468;-62
2022/04/24 01:21:58;;;;;;;32.08;19.77;;;;;;;12.47;76.65;99050.97;4470367;32;33733;-62
2022/04/24 01:24:27;;;;;;;29.85;19.83;;;;;;;12.67;75.95;99054.06;4468278;32;32480;-61
2022/04/24 01:26:55;;;;;;;31.12;20.23;;;;;;;12.35;76.78;99038.56;4471047;32;35279;-62
2022/04/24 01:29:23;;;;;;;31.35;19.60;;;;;;;12.40;76.99;99046.47;4466369;32;34766;-61
2022/04/24 01:31:50;;;;;;;29.65;19.48;;;;;;;13.04;74.36;99047.13;4471922;32;34290;-61
2022/04/24 01:34:19;;;;;;;29.73;19.52;;;;;;;12.63;75.16;99040.94;4469329;32;33749;-61
2022/04/24 01:36:47;;;;;;;28.65;18.62;;;;;;;12.41;76.36;99036.97;4468679;32;33974;-61
2022/04/24 01:39:15;;;;;;;29.75;18.67;;;;;;;12.36;76.35;99035.13;4471349;32;32432;-62
2022/04/24 01:41:44;;;;;;;30.77;20.23;;;;;;;12.46;76.30;99033.63;4468199;32;34771;-60
2022/04/24 01:44:12;;;;;;;28.92;19.20;;;;;;;12.59;75.26;99021.81;4466635;32;33573;-61
2022/04/24 01:46:40;;;;;;;27.70;17.67;;;;;;;12.79;74.53;99030.97;4468376;32;32865;-61
2022/04/24 01:49:07;;;;;;;29.63;18.55;;;;;;;12.81;74.06;99028.41;4471106;32;34067;-62
2022/04/24 01:51:35;;;;;;;27.37;17.83;;;;;;;12.55;75.16;99035.56;4455580;32;34900;-61
2022/04/24 01:54:02;;;;;;;31.67;18.17;;;;;;;12.03;78.29;99034.25;4471663;32;32522;-62
2022/04/24 01:56:30;;;;;;;29.12;18.60;;;;;;;12.74;74.93;99032.56;4470488;32;33875;-62
2022/04/24 01:58:57;;;;;;;30.35;19.17;;;;;;;12.51;75.41;99044.12;4469623;32;33578;-61
2022/04/24 02:01:25;;;;;;;28.75;19.02;;;;;;;13.25;72.57;99032.84;4469582;32;34105;-60
2022/04/24 02:03:53;;;;;;;29.17;18.62;;;;;;;12.27;76.14;99028.81;4453515;32;31967;-61
2022/04/24 02:06:21;;;;;;;26.70;17.98;;;;;;;12.44;76.01;99030.12;4456055;32;33191;-61
2022/04/24 02:08:48;;;;;;;28.40;17.75;;;;;;;12.35;75.95;99027.28;4474179;32;34051;-61
2022/04/24 02:11:16;;;;;;;27.52;17.08;;;;;;;12.87;73.91;99032.87;4452165;32;34437;-60
2022/04/24 02:13:45;;;;;;;27.30;17.50;;;;;;;12.71;74.11;99019.53;4470099;32;33818;-61
2022/04/24 02:16:12;;;;;;;29.17;18.23;;;;;;;12.28;75.52;99035.75;4466525;32;34901;-63
2022/04/24 02:18:40;;;;;;;28.15;17.58;;;;;;;12.04;76.65;99023.03;4470186;32;33857;-61
2022/04/24 02:21:07;;;;;;;26.62;17.55;;;;;;;11.77;79.06;99042.16;4469096;32;35325;-61
2022/04/24 02:23:35;;;;;;;26.92;18.02;;;;;;;12.04;77.62;99031.69;4472796;32;33120;-61
2022/04/24 02:26:03;;;;;;;27.67;17.75;;;;;;;12.06;76.99;99018.75;4467433;32;34404;-61
2022/04/24 02:28:30;;;;;;;30.55;18.62;;;;;;;11.97;76.58;99024.56;4471036;32;32388;-61
2022/04/24 02:30:58;;;;;;;29.20;17.87;;;;;;;12.18;75.93;99024.25;4472377;32;34835;-60
2022/04/24 02:33:25;;;;;;;28.00;17.90;;;;;;;11.80;77.31;99012.00;4472818;32;33691;-61
2022/04/24 02:35:53;;;;;;;31.10;19.12;;;;;;;11.50;78.80;99009.44;4469793;32;34652;-61
2022/04/24 02:38:20;;;;;;;29.37;17.95;;;;;;;11.70;78.21;99024.66;4472855;32;34003;-60
2022/04/24 02:40:48;;;;;;;26.33;16.75;;;;;;;11.95;76.73;99021.06;4469732;32;34715;-60
2022/04/24 02:43:15;;;;;;;30.37;19.08;;;;;;;12.43;75.46;99011.91;4469682;32;32461;-62
2022/04/24 02:45:43;;;;;;;28.17;17.60;;;;;;;11.74;77.66;99021.31;4472924;32;33903;-61
2022/04/24 02:48:11;;;;;;;26.15;17.60;;;;;;;11.94;76.82;99019.31;4472253;32;32409;-62
2022/04/24 02:50:39;;;;;;;33.42;20.05;;;;;;;11.90;77.02;99013.16;4471655;32;34672;-60
2022/04/24 02:53:07;;;;;;;30.73;18.77;;;;;;;11.75;77.29;99013.59;4471959;32;33444;-61
2022/04/24 02:55:35;;;;;;;30.35;19.02;;;;;;;11.63;78.02;99008.06;4470451;32;34438;-60
2022/04/24 02:58:03;;;;;;;30.62;19.15;;;;;;;11.89;77.10;99016.56;4470983;32;33957;-61
2022/04/24 03:00:41;;;;;;;30.23;19.42;;;;;;;11.63;78.32;99005.47;4471184;32;34344;-62
2022/04/24 03:03:09;;;;;;;29.52;17.45;;;;;;;11.69;78.08;99007.38;4469599;32;34461;-62
2022/04/24 03:05:37;;;;;;;26.27;16.33;;;;;;;12.13;75.82;99005.97;4469029;32;34654;-61
2022/04/24 03:08:05;;;;;;;29.45;17.92;;;;;;;11.79;76.44;99005.03;4465444;32;34786;-62
2022/04/24 03:10:33;;;;;;;28.27;17.40;;;;;;;11.89;76.45;99006.19;4467792;32;34765;-61
2022/04/24 03:13:00;;;;;;;31.45;18.73;;;;;;;12.31;74.37;98994.31;4468945;32;33792;-62
2022/04/24 03:15:28;;;;;;;32.22;19.35;;;;;;;11.98;75.92;98990.88;4470906;32;33355;-60
2022/04/24 03:17:55;;;;;;;28.58;18.58;;;;;;;11.85;76.69;98986.16;4471007;32;33784;-62
2022/04/24 03:20:23;;;;;;;29.35;18.15;;;;;;;11.91;76.11;98988.94;4471040;32;33921;-60
2022/04/24 03:22:51;;;;;;;29.98;18.87;;;;;;;11.96;75.98;98983.91;4466555;32;33700;-61
2022/04/24 03:25:19;;;;;;;30.17;18.50;;;;;;;11.90;76.49;98982.03;4469502;32;33853;-60
2022/04/24 03:27:46;;;;;;;30.50;18.40;;;;;;;11.65;77.78;98985.66;4470904;32;33725;-62
2022/04/24 03:30:14;;;;;;;28.70;18.27;;;;;;;11.85;76.53;98983.56;4469217;32;33890;-60
2022/04/24 03:32:42;;;;;;;32.28;18.92;;;;;;;11.54;78.28;98974.97;4466420;32;33647;-61
2022/04/24 03:35:10;;;;;;;28.98;18.55;;;;;;;11.52;78.24;98961.06;4464673;32;34682;-63
2022/04/24 03:37:38;;;;;;;29.77;18.48;;;;;;;11.39;78.25;98966.75;4466311;32;33604;-61
2022/04/24 03:40:06;;;;;;;30.45;18.62;;;;;;;11.33;78.78;98976.97;4463131;32;33890;-60
2022/04/24 03:42:34;;;;;;;32.30;18.42;;;;;;;11.65;77.52;98970.06;4464373;32;34426;-62
2022/04/24 03:45:04;;;;;;;31.83;19.42;;;;;;;11.89;76.49;98964.69;4466042;32;34562;-59
2022/04/24 03:47:32;;;;;;;29.60;17.62;;;;;;;11.49;78.35;98962.69;4470821;32;33022;-59
2022/04/24 03:49:59;;;;;;;26.65;17.20;;;;;;;11.57;78.26;98972.47;4438130;32;34228;-61
2022/04/24 03:52:27;;;;;;;27.23;17.20;;;;;;;11.70;77.58;98962.41;4465936;32;35027;-61
2022/04/24 03:54:55;;;;;;;30.88;17.77;;;;;;;11.58;78.04;98974.19;4465998;32;33889;-61
2022/04/24 03:57:22;;;;;;;27.83;18.37;;;;;;;11.77;77.12;98969.53;4465998;32;34203;-61
2022/04/24 03:59:50;;;;;;;27.98;17.33;;;;;;;11.92;75.95;98969.97;4467661;32;34158;-60
2022/04/24 04:02:18;;;;;;;30.80;18.48;;;;;;;11.75;76.90;98964.28;4469617;32;33446;-61
2022/04/24 04:04:46;;;;;;;32.60;19.55;;;;;;;11.80;76.91;98970.50;4472926;32;33950;-60
2022/04/24 04:07:13;;;;;;;29.42;18.35;;;;;;;11.75;77.29;98971.19;4469595;32;33772;-61
2022/04/24 04:09:41;;;;;;;29.80;18.20;;;;;;;11.91;76.64;98965.59;4466978;32;33530;-61
2022/04/24 04:12:10;;;;;;;32.00;19.25;;;;;;;11.94;76.32;98965.69;4473560;32;33540;-61
2022/04/24 04:14:38;;;;;;;31.75;19.48;;;;;;;12.03;75.86;98967.62;4472230;32;33863;-60
2022/04/24 04:17:06;;;;;;;29.23;18.10;;;;;;;12.27;74.73;98975.16;4472930;32;33935;-61
2022/04/24 04:19:34;;;;;;;32.28;18.70;;;;;;;12.04;75.81;98973.72;4466454;32;34689;-61
2022/04/24 04:22:02;;;;;;;29.58;19.30;;;;;;;12.27;74.96;98980.34;4465124;32;34492;-60
2022/04/24 04:24:29;;;;;;;31.35;19.50;;;;;;;12.06;75.73;98975.50;4466615;32;34319;-62
2022/04/24 04:26:57;;;;;;;29.25;18.65;;;;;;;12.08;76.01;98967.75;4466986;32;33627;-61
2022/04/24 04:29:25;;;;;;;28.17;18.85;;;;;;;12.29;75.05;98970.88;4468982;32;34632;-62
2022/04/24 04:31:52;;;;;;;30.05;18.75;;;;;;;12.58;73.75;98962.91;4472191;32;33600;-61
2022/04/24 04:34:20;;;;;;;28.25;18.23;;;;;;;12.18;74.95;98967.13;4459039;32;33717;-60
2022/04/24 04:36:47;;;;;;;29.08;18.20;;;;;;;12.25;75.03;98969.06;4469497;32;33848;-61
2022/04/24 04:39:15;;;;;;;31.50;19.90;;;;;;;12.04;75.97;98974.59;4472810;32;34725;-60
2022/04/24 04:41:42;;;;;;;32.42;18.40;;;;;;;13.04;71.75;98984.75;4452673;32;32102;-61
2022/04/24 04:44:10;;;;;;;30.20;18.62;;;;;;;12.86;72.09;98980.00;4473962;32;34623;-60
2022/04/24 04:46:38;;;;;;;35.83;19.35;;;;;;;12.75;72.96;98966.78;4454651;32;33951;-61
2022/04/24 04:49:05;;;;;;;31.40;19.37;;;;;;;12.61;73.30;98978.56;4473076;32;34798;-61
2022/04/24 04:51:33;;;;;;;31.62;18.87;;;;;;;12.65;73.25;98972.63;4467578;32;34397;-60
2022/04/24 04:54:01;;;;;;;31.45;18.98;;;;;;;12.61;73.51;98968.16;4469613;32;33712;-61
2022/04/24 04:56:28;;;;;;;29.42;18.92;;;;;;;12.92;72.36;98968.84;4451089;32;33387;-61
2022/04/24 04:58:56;;;;;;;29.85;18.37;;;;;;;12.88;72.51;98965.31;4468367;32;34700;-61
2022/04/24 05:01:23;;;;;;;29.90;17.85;;;;;;;12.83;72.47;98963.47;4465066;32;34311;-61
2022/04/24 05:03:51;;;;;;;28.92;18.08;;;;;;;12.70;73.01;98970.97;4470522;32;34151;-62
2022/04/24 05:06:19;;;;;;;28.92;18.35;;;;;;;12.91;72.62;98967.97;4468736;32;34263;-61
2022/04/24 05:08:47;;;;;;;30.10;17.62;;;;;;;12.56;73.67;98969.78;4453340;32;32962;-62
2022/04/24 05:11:14;;;;;;;28.30;17.52;;;;;;;12.93;72.76;98960.22;4473330;32;34631;-61
2022/04/24 05:13:42;;;;;;;29.42;18.87;;;;;;;12.67;73.58;98947.53;4468606;32;33726;-62
2022/04/24 05:16:10;;;;;;;30.95;19.80;;;;;;;12.29;75.13;98950.09;4456391;32;33521;-62
2022/04/24 05:18:37;;;;;;;30.35;18.60;;;;;;;12.55;74.33;98945.50;4467507;32;34218;-61
2022/04/24 05:21:05;;;;;;;28.15;17.85;;;;;;;12.75;73.62;98945.97;4461434;32;33463;-61
2022/04/24 05:23:33;;;;;;;28.80;18.05;;;;;;;12.89;73.01;98948.00;4459365;32;33759;-61
2022/04/24 05:26:00;;;;;;;28.38;18.27;;;;;;;13.31;71.44;98952.41;4453752;32;34068;-62
2022/04/24 05:28:28;;;;;;;27.27;17.65;;;;;;;13.41;71.00;98943.06;4468681;32;34144;-62
2022/04/24 05:30:55;;;;;;;29.98;17.33;;;;;;;13.44;70.24;98948.28;4467041;32;34416;-60
2022/04/24 05:33:23;;;;;;;30.37;19.62;;;;;;;12.89;72.72;98937.62;4466278;32;33891;-60
2022/04/24 05:35:51;;;;;;;32.60;18.87;;;;;;;13.25;71.60;98931.41;4468533;32;34157;-62
2022/04/24 05:38:18;;;;;;;27.33;17.65;;;;;;;13.86;69.68;98948.22;4457186;32;32126;-60
2022/04/24 05:40:46;;;;;;;30.27;17.80;;;;;;;13.39;71.24;98949.94;4477378;32;34656;-60
2022/04/24 05:43:13;;;;;;;31.67;19.85;;;;;;;13.17;72.42;98965.97;4457326;32;32499;-61
2022/04/24 05:45:41;;;;;;;30.60;20.35;;;;;;;13.02;73.04;98970.84;4472231;32;34507;-61
2022/04/24 05:48:09;;;;;;;31.35;19.90;;;;;;;13.06;73.21;98962.25;4469492;32;34289;-61
2022/04/24 05:50:36;;;;;;;35.03;21.37;;;;;;;13.52;71.05;98958.03;4455268;32;33045;-59
2022/04/24 05:53:03;;;;;;;36.10;21.30;;;;;;;13.23;72.10;98959.09;4474211;32;33921;-61
2022/04/24 05:55:31;;;;;;;31.52;20.30;;;;;;;13.36;71.68;98951.63;4455989;32;34427;-59
2022/04/24 05:58:00;;;;;;;29.83;20.12;;;;;;;13.67;70.61;98951.34;4467422;32;33876;-62
2022/04/24 06:00:27;;;;;;;33.28;20.12;;;;;;;14.01;69.47;98951.97;4450173;32;33508;-61
2022/04/24 06:02:55;;;;;;;28.87;19.27;;;;;;;14.08;69.49;98953.78;4443027;32;33817;-60
2022/04/24 06:05:23;;;;;;;33.97;20.08;;;;;;;13.74;70.29;98968.81;4469585;32;34444;-61
2022/04/24 06:07:51;;;;;;;33.17;20.45;;;;;;;14.02;69.67;98964.13;4469262;32;34299;-62
2022/04/24 06:10:19;;;;;;;36.97;22.00;;;;;;;13.85;70.82;98967.31;4455953;32;33627;-62
2022/04/24 06:12:56;;;;;;;33.50;20.95;;;;;;;13.99;70.46;98958.88;4473055;32;34347;-60
2022/04/24 06:15:26;;;;;;;33.60;22.10;;;;;;;14.28;69.60;98962.81;4471944;32;34085;-60
2022/04/24 06:17:55;;;;;;;31.55;19.77;;;;;;;14.67;68.43;98951.31;4469157;32;33928;-62
2022/04/24 06:20:25;;;;;;;37.42;22.75;;;;;;;14.34;69.33;98952.50;4468168;32;34419;-60
2022/04/24 06:22:57;;;;;;;35.25;22.30;;;;;;;14.63;68.13;98944.28;4466182;32;34576;-60
2022/04/24 06:25:30;;;;;;;34.05;22.23;;;;;;;14.98;67.19;98951.72;4470227;32;33827;-62
2022/04/24 06:27:58;;;;;;;37.17;23.27;;;;;;;15.02;67.12;98950.03;4456560;32;32616;-60
2022/04/24 06:30:28;;;;;;;34.58;21.85;;;;;;;14.82;67.67;98952.38;4472315;32;34518;-61
2022/04/24 06:32:57;;;;;;;36.60;22.60;;;;;;;14.51;68.45;98959.72;4468607;32;33981;-62
2022/04/24 06:35:25;;;;;;;35.45;22.20;;;;;;;15.00;66.57;98943.94;4466451;32;34728;-61
2022/04/24 06:37:53;;;;;;;32.72;22.33;;;;;;;14.99;66.79;98945.69;4447819;32;34215;-62
2022/04/24 06:40:25;;;;;;;35.78;23.30;;;;;;;15.26;65.91;98939.03;4468103;32;34436;-62
2022/04/24 06:43:00;;;;;;;32.88;21.58;;;;;;;15.03;67.02;98936.16;4468449;32;34501;-62
2022/04/24 06:45:41;;;;;;;33.72;20.65;;;;;;;15.49;65.92;98940.19;4469415;32;34169;-61
2022/04/24 06:48:11;;;;;;;33.65;22.15;;;;;;;15.48;65.71;98928.00;4470030;32;33914;-63
2022/04/24 06:50:40;;;;;;;31.62;20.58;;;;;;;14.98;67.26;98932.59;4471736;32;34394;-62
2022/04/24 06:53:12;;;;;;;31.15;19.67;;;;;;;15.50;65.93;98928.88;4469884;32;33911;-61
2022/04/24 06:55:41;;;;;;;32.13;20.77;;;;;;;15.09;67.20;98928.41;4471905;32;33998;-63
2022/04/24 06:58:10;;;;;;;30.40;19.70;;;;;;;15.23;66.94;98921.63;4474943;32;34072;-62
2022/04/24 07:00:40;;;;;;;29.77;19.98;;;;;;;15.37;67.36;98934.81;4473089;32;33195;-62
2022/04/24 07:03:29;;;;;;;28.08;18.80;;;;;;;15.58;66.35;98918.53;4464586;32;33824;-62
2022/04/24 07:05:57;;;;;;;30.15;17.90;;;;;;;15.74;65.69;98930.03;4466100;32;34679;-62
2022/04/24 07:08:25;;;;;;;29.08;18.85;;;;;;;15.97;65.21;98921.53;4452613;32;34169;-62
2022/04/24 07:10:53;;;;;;;30.67;19.05;;;;;;;16.10;64.88;98926.87;4468846;32;33793;-62
2022/04/24 07:13:21;;;;;;;29.30;18.12;;;;;;;15.96;65.62;98914.59;4466883;32;34117;-62
2022/04/24 07:15:49;;;;;;;28.12;18.25;;;;;;;16.25;64.21;98923.53;4468674;32;34633;-62
2022/04/24 07:18:17;;;;;;;26.52;16.87;;;;;;;16.75;63.01;98918.66;4466778;32;34767;-62
2022/04/24 07:20:44;;;;;;;33.22;19.33;;;;;;;16.73;63.39;98915.12;4443864;32;33815;-63
2022/04/24 07:23:12;;;;;;;28.52;19.20;;;;;;;16.41;63.64;98907.97;4465934;32;33584;-60
2022/04/24 07:25:43;;;;;;;32.47;18.48;;;;;;;16.69;62.93;98909.88;4453270;32;34870;-59
2022/04/24 07:28:13;;;;;;;27.48;18.92;;;;;;;16.57;63.57;98907.19;4463724;32;33816;-60
2022/04/24 07:30:41;;;;;;;24.75;16.65;;;;;;;16.75;63.59;98892.50;4436864;32;34395;-60
2022/04/24 07:33:10;;;;;;;30.58;18.37;;;;;;;17.01;63.16;98890.88;4469021;32;33873;-63
2022/04/24 07:35:38;;;;;;;28.40;16.95;;;;;;;16.89;63.05;98888.22;4462772;32;34616;-62
2022/04/24 07:38:06;;;;;;;25.45;16.85;;;;;;;16.77;62.44;98890.75;4469848;32;34904;-62
2022/04/24 07:40:36;;;;;;;27.58;17.42;;;;;;;17.29;62.22;98891.00;4453383;32;34106;-60
2022/04/24 07:43:05;;;;;;;28.23;18.02;;;;;;;17.85;60.92;98898.13;4463700;32;33771;-60
2022/04/24 07:45:32;;;;;;;24.92;16.25;;;;;;;17.72;60.55;98896.31;4467951;32;33826;-61
2022/04/24 07:48:00;;;;;;;25.62;16.37;;;;;;;17.71;59.07;98905.03;4468268;32;33874;-61
2022/04/24 07:50:29;;;;;;;25.92;16.67;;;;;;;18.28;58.50;98903.37;4467471;32;34462;-59
2022/04/24 07:52:57;;;;;;;22.75;16.05;;;;;;;18.65;57.65;98900.69;4468188;32;33715;-59
2022/04/24 07:55:25;;;;;;;25.50;16.98;;;;;;;18.66;57.19;98898.94;4469253;32;33496;-59
2022/04/24 07:57:54;;;;;;;25.00;17.05;;;;;;;18.77;56.39;98901.53;4465824;32;35013;-61
2022/04/24 08:00:23;;;;;;;30.95;17.48;;;;;;;18.73;56.28;98899.78;4468888;32;34564;-60
2022/04/24 08:03:01;;;;;;;27.73;16.75;;;;;;;18.72;56.24;98908.56;4468883;32;34459;-60
2022/04/24 08:05:33;;;;;;;23.62;15.90;;;;;;;18.69;57.77;98891.06;4454982;32;35886;-63
2022/04/24 08:08:06;;;;;;;23.38;16.48;;;;;;;19.39;55.10;98870.66;4451932;32;34382;-61
2022/04/24 08:10:35;;;;;;;24.48;15.73;;;;;;;19.93;54.00;98878.22;4455309;32;33734;-61
2022/04/24 08:13:05;;;;;;;23.65;15.63;;;;;;;20.08;54.58;98878.09;4467015;32;33507;-61
2022/04/24 08:15:39;;;;;;;23.42;16.27;;;;;;;19.23;54.31;98870.75;4449949;32;33843;-61
2022/04/24 08:18:07;;;;;;;20.75;14.60;;;;;;;18.94;54.58;98878.75;4460525;32;34190;-61
2022/04/24 08:20:35;;;;;;;23.12;15.32;;;;;;;19.73;54.60;98866.13;4464683;32;34457;-62
2022/04/24 08:23:03;;;;;;;19.83;13.95;;;;;;;18.70;55.86;98865.69;4451257;32;31953;-61
2022/04/24 08:25:36;;;;;;;22.45;13.98;;;;;;;19.98;54.00;98855.41;4468650;32;32525;-61
2022/04/24 08:28:06;;;;;;;21.95;13.68;;;;;;;19.80;54.84;98841.53;4468581;32;34145;-62
2022/04/24 08:30:46;;;;;;;19.85;14.05;;;;;;;19.15;55.75;98851.56;4463701;32;33749;-61
2022/04/24 08:33:15;;;;;;;20.10;14.35;;;;;;;18.91;55.57;98857.81;4470037;32;33376;-62
2022/04/24 08:35:45;;;;;;;19.55;13.43;;;;;;;19.21;55.09;98851.53;4467240;32;34936;-62
2022/04/24 08:38:13;;;;;;;21.12;13.82;;;;;;;19.54;54.80;98853.97;4466007;32;34033;-62
2022/04/24 08:40:40;;;;;;;19.25;12.93;;;;;;;19.86;51.80;98843.25;4462755;32;33554;-61
2022/04/24 08:43:08;;;;;;;18.75;12.60;;;;;;;20.27;51.89;98830.62;4463917;32;33320;-61
2022/04/24 08:45:38;;;;;;;21.55;14.43;;;;;;;20.75;51.83;98828.38;4439389;32;32303;-62
2022/04/24 08:48:06;;;;;;;22.42;14.25;;;;;;;20.26;51.87;98834.13;4450334;32;34391;-62
2022/04/24 08:50:35;;;;;;;23.62;15.15;;;;;;;19.86;52.32;98823.97;4453787;32;34202;-62
2022/04/24 08:53:04;;;;;;;21.42;14.87;;;;;;;19.21;54.45;98834.91;4450117;32;34006;-61
2022/04/24 08:55:32;;;;;;;18.98;13.02;;;;;;;18.75;56.67;98819.34;4449740;32;34724;-61
2022/04/24 08:58:01;;;;;;;18.40;11.85;;;;;;;19.76;55.07;98813.56;4451871;32;34226;-62
2022/04/24 09:00:29;;;;;;;17.95;11.12;;;;;;;19.50;52.40;98807.59;4465147;32;33378;-61
2022/04/24 09:02:58;;;;;;;17.55;11.18;;;;;;;19.17;54.20;98813.03;4469243;32;33844;-61
2022/04/24 09:05:28;;;;;;;16.73;9.82;;;;;;;19.19;54.50;98823.53;4465826;32;33620;-61
2022/04/24 09:08:07;;;;;;;10.07;5.97;;;;;;;19.32;55.54;98816.47;4452996;32;34158;-61
2022/04/24 09:10:56;;;;;;;9.00;5.72;;;;;;;18.96;52.46;98808.78;4460797;32;33395;-61
2022/04/24 09:14:14;;;;;;;13.48;4.12;;;;;;;19.01;52.54;98796.50;4457560;32;33862;-60
2022/04/24 09:16:35;;;;;;;6.62;3.03;;;;;;;18.60;51.87;98794.94;4470592;32;34682;-60
2022/04/24 09:19:03;;;;;;;7.18;2.95;;;;;;;18.36;50.98;98795.88;4470651;32;34217;-60
2022/04/24 09:21:31;;;;;;;6.68;3.03;;;;;;;18.20;51.25;98799.41;4473357;32;34565;-60
2022/04/24 09:24:00;;;;;;;7.53;2.87;;;;;;;18.31;51.94;98805.50;4470110;32;33781;-60
2022/04/24 09:26:28;;;;;;;7.15;2.30;;;;;;;18.35;49.86;98801.09;4455602;32;33631;-60
2022/04/24 09:29:12;;;;;;;5.22;1.50;;;;;;;18.16;50.27;98797.69;4468321;32;34696;-60
2022/04/24 09:31:47;;;;;;;5.10;2.25;;;;;;;18.27;49.82;98786.28;4472422;32;33491;-60
2022/04/24 09:34:20;;;;;;;6.50;1.90;;;;;;;18.69;49.58;98803.63;4472714;32;34601;-61
2022/04/24 09:37:00;;;;;;;3.95;1.83;;;;;;;19.04;50.16;98796.50;4476391;32;34437;-62
2022/04/24 09:39:29;;;;;;;4.35;1.80;;;;;;;18.98;48.83;98796.50;4474768;32;34667;-61
2022/04/24 09:42:06;;;;;;;6.40;2.15;;;;;;;18.88;48.12;98792.19;4470194;32;33760;-62
2022/04/24 09:44:39;;;;;;;3.97;1.70;;;;;;;18.75;48.59;98800.97;4469538;32;34364;-62
2022/04/24 09:47:27;;;;;;;6.97;2.08;;;;;;;18.54;50.44;98804.56;4468626;32;33755;-61
2022/04/24 09:49:55;;;;;;;4.62;1.10;;;;;;;18.55;50.17;98807.19;4474105;32;34468;-61
2022/04/24 09:52:24;;;;;;;3.08;0.98;;;;;;;18.12;47.00;98798.53;4445824;32;34338;-61
2022/04/24 09:54:53;;;;;;;2.85;0.80;;;;;;;18.13;47.63;98814.25;4473075;32;33947;-61
2022/04/24 09:57:23;;;;;;;4.12;0.77;;;;;;;17.90;46.40;98805.56;4467752;32;34827;-61
2022/04/24 09:59:51;;;;;;;4.20;0.90;;;;;;;17.92;46.31;98801.19;4472211;32;33104;-61
2022/04/24 10:02:19;;;;;;;3.92;0.85;;;;;;;17.82;47.95;98816.00;4475131;32;31664;-61
2022/04/24 10:04:48;;;;;;;6.75;0.82;;;;;;;17.85;47.46;98816.91;4473533;32;34181;-59
2022/04/24 10:07:17;;;;;;;5.87;0.70;;;;;;;17.85;46.55;98814.28;4455584;32;32474;-60
2022/04/24 10:09:47;;;;;;;2.92;0.68;;;;;;;17.72;46.90;98812.53;4471377;32;33865;-59
2022/04/24 10:12:20;;;;;;;4.35;0.75;;;;;;;17.65;47.08;98823.84;4454135;32;33050;-60
2022/04/24 10:14:57;;;;;;;3.58;0.90;;;;;;;17.59;47.84;98836.94;4461197;32;34504;-60
2022/04/24 10:17:28;;;;;;;6.87;0.90;;;;;;;17.53;48.36;98836.94;4448763;32;33660;-61
2022/04/24 10:20:23;;;;;;;2.72;0.90;;;;;;;17.55;48.67;98837.81;4467506;32;33664;-61
2022/04/24 10:22:54;;;;;;;;;;;;;;;17.40;48.92;98842.19;4456987;32;34201;-61
2022/04/24 10:25:37;;;;;;;1.75;0.80;;;;;;;17.39;49.27;98848.28;4463764;32;34010;-60
2022/04/24 10:28:13;;;;;;;4.80;0.90;;;;;;;17.24;50.52;98845.62;4453205;32;33726;-60
2022/04/24 10:30:41;;;;;;;3.90;0.70;;;;;;;17.15;50.98;98845.59;4466667;32;34744;-60
2022/04/24 10:33:22;;;;;;;2.83;0.80;;;;;;;17.00;52.04;98846.44;4452000;32;32434;-60
2022/04/24 10:36:17;;;;;;;6.60;0.90;;;;;;;16.82;52.82;98857.66;4452134;32;34505;-60
2022/04/24 10:39:16;;;;;;;4.62;0.80;;;;;;;16.73;52.59;98847.12;4467343;32;34425;-60
2022/04/24 10:42:05;;;;;;;3.28;0.90;;;;;;;16.77;53.48;98841.06;4452867;32;33664;-60
2022/04/24 10:44:33;;;;;;;6.15;1.02;;;;;;;16.58;52.18;98827.03;4457347;32;33715;-60
2022/04/24 10:47:11;;;;;;;3.60;0.80;;;;;;;16.51;53.41;98836.56;4455165;32;33495;-60
2022/04/24 10:49:38;;;;;;;3.65;0.70;;;;;;;16.59;52.22;98824.44;4464808;32;34028;-60
2022/04/24 10:52:06;;;;;;;3.05;0.70;;;;;;;16.50;52.95;98827.00;4459784;32;35070;-60
2022/04/24 10:54:36;;;;;;;2.62;0.65;;;;;;;16.47;53.19;98819.13;4460527;32;32216;-60
2022/04/24 10:57:16;;;;;;;2.67;0.52;;;;;;;16.46;53.66;98822.63;4448829;32;33977;-60
2022/04/24 10:59:48;;;;;;;4.78;1.08;;;;;;;16.52;53.82;98820.03;4458768;32;33659;-60
2022/04/24 11:02:33;;;;;;;5.50;0.95;;;;;;;16.54;54.18;98818.28;4455724;32;34671;-60
2022/04/24 11:05:01;;;;;;;5.60;0.98;;;;;;;16.53;54.38;98821.75;4461202;32;32294;-61
2022/04/24 11:07:31;;;;;;;4.28;0.80;;;;;;;16.62;54.92;98834.87;4466811;32;33099;-60
2022/04/24 11:10:03;;;;;;;3.97;1.05;;;;;;;16.74;54.97;98835.81;4448639;32;34674;-61
2022/04/24 11:12:32;;;;;;;3.37;0.88;;;;;;;16.59;54.26;98845.34;4447125;32;33922;-61
2022/04/24 11:15:08;;;;;;;3.12;0.85;;;;;;;16.53;54.22;98842.69;4452272;32;34264;-61
2022/04/24 11:17:37;;;;;;;6.00;0.85;;;;;;;16.53;54.03;98840.06;4449317;32;33915;-60
2022/04/24 11:20:10;;;;;;;2.80;1.00;;;;;;;16.44;54.33;98837.41;4449144;32;32479;-60
2022/04/24 11:22:55;;;;;;;3.15;0.80;;;;;;;16.39;54.12;98853.06;4446784;32;34332;-60
2022/04/24 11:25:24;;;;;;;2.10;0.80;;;;;;;16.30;54.91;98847.75;4447832;32;33520;-61
2022/04/24 11:27:56;;;;;;;3.28;0.82;;;;;;;16.21;55.60;98851.22;4452228;32;33896;-60
2022/04/24 11:30:31;;;;;;;3.42;0.90;;;;;;;16.20;55.50;98854.66;4449236;32;33998;-62
2022/04/24 11:33:05;;;;;;;5.22;1.08;;;;;;;16.20;55.95;98852.06;4460252;32;34767;-61